Time;durP1;ratioP1;P1;durP2;ratioP2;P2;SDS_P1;SDS_P2;PMS_P1;PMS_P2;Temp;Humidity;BMP_temperature;BMP_pressure;BME280_temperature;BME280_humidity;BME280_pressure;Samples;Min_cycle;Max_cycle;Signal;HPM_P1;HPM_P2
2023/04/09 00:02:16;;;;;;;;;;;6.30;99.90;;;;;;5097285;28;19934;-65
2023/04/09 00:04:41;;;;;;;;;;;6.20;99.90;;;;;;5099257;28;19954;-66
2023/04/09 00:07:07;;;;;;;;;;;6.30;99.90;;;;;;5097658;28;19915;-66
2023/04/09 00:09:32;;;;;;;;;;;6.30;99.90;;;;;;5097210;28;19912;-67
2023/04/09 00:11:58;;;;;;;;;;;6.40;99.90;;;;;;5098692;28;19911;-67
2023/04/09 00:14:24;;;;;;;;;;;6.50;99.90;;;;;;5105495;28;19966;-66
2023/04/09 00:16:49;;;;;;;;;;;6.50;99.90;;;;;;5101187;28;19927;-67
2023/04/09 00:19:15;;;;;;;;;;;6.50;99.90;;;;;;5097974;28;19957;-66
2023/04/09 00:21:41;;;;;;;;;;;6.50;99.90;;;;;;5106028;28;19912;-67
2023/04/09 00:24:06;;;;;;;;;;;6.50;99.90;;;;;;5102512;28;19979;-67
2023/04/09 00:26:32;;;;;;;;;;;6.50;99.90;;;;;;5100197;28;20324;-67
2023/04/09 00:28:57;;;;;;;;;;;6.40;99.90;;;;;;5106661;28;20390;-67
2023/04/09 00:31:23;;;;;;;;;;;6.40;99.90;;;;;;5103400;28;19918;-67
2023/04/09 00:33:49;;;;;;;;;;;6.40;99.90;;;;;;5098556;28;19957;-67
2023/04/09 00:36:14;;;;;;;;;;;6.40;99.90;;;;;;5099201;28;19991;-67
2023/04/09 00:38:40;;;;;;;;;;;6.30;99.90;;;;;;5101951;28;19934;-67
2023/04/09 00:41:06;;;;;;;;;;;6.20;99.90;;;;;;5092002;28;19912;-64
2023/04/09 00:43:31;;;;;;;;;;;6.20;99.90;;;;;;5091675;28;19964;-67
2023/04/09 00:45:57;;;;;;;;;;;6.30;99.90;;;;;;5095305;28;19912;-67
2023/04/09 00:48:23;;;;;;;;;;;6.30;99.90;;;;;;5098296;28;19912;-67
2023/04/09 00:50:48;;;;;;;;;;;6.30;99.90;;;;;;5106813;28;19918;-67
2023/04/09 00:53:15;;;;;;;;;;;6.40;99.90;;;;;;5092035;28;19935;-67
2023/04/09 00:55:40;;;;;;;;;;;6.50;99.90;;;;;;5077786;28;19912;-68
2023/04/09 00:58:06;;;;;;;;;;;6.50;99.90;;;;;;5095213;28;20295;-67
2023/04/09 01:00:32;;;;;;;;;;;6.50;99.90;;;;;;5092684;28;19992;-67
2023/04/09 01:02:57;;;;;;;;;;;6.50;99.90;;;;;;5105853;28;19912;-67
2023/04/09 01:05:30;;;;;;;;;;;6.40;99.90;;;;;;5101764;28;19994;-68
2023/04/09 01:08:18;;;;;;;;;;;6.30;99.90;;;;;;5109076;28;19908;-67
2023/04/09 01:11:07;;;;;;;;;;;6.40;99.90;;;;;;5081932;28;19912;-67
2023/04/09 01:13:52;;;;;;;;;;;6.30;99.90;;;;;;5115499;27;19912;-67
2023/04/09 01:16:18;;;;;;;;;;;6.30;99.90;;;;;;5091843;28;19981;-67
2023/04/09 01:18:49;;;;;;;;;;;6.20;99.90;;;;;;5096926;28;20302;-67
2023/04/09 01:21:25;;;;;;;;;;;6.10;99.90;;;;;;5087738;28;19913;-67
2023/04/09 01:23:54;;;;;;;;;;;6.10;99.90;;;;;;5098747;28;19912;-67
2023/04/09 01:26:35;;;;;;;;;;;6.10;99.90;;;;;;5096786;28;19912;-67
2023/04/09 01:29:01;;;;;;;;;;;6.10;99.90;;;;;;5093245;28;20015;-66
2023/04/09 01:31:29;;;;;;;;;;;6.20;99.90;;;;;;5101501;28;19912;-66
2023/04/09 01:33:56;;;;;;;;;;;6.20;99.90;;;;;;5102713;28;19954;-66
2023/04/09 01:36:22;;;;;;;;;;;6.20;99.90;;;;;;5097589;28;20015;-66
2023/04/09 01:38:50;;;;;;;;;;;6.10;99.90;;;;;;5106130;28;19911;-66
2023/04/09 01:41:18;;;;;;;;;;;6.00;99.90;;;;;;5095450;28;19961;-66
2023/04/09 01:43:44;;;;;;;;;;;5.90;99.90;;;;;;5100832;28;20006;-67
2023/04/09 01:46:11;;;;;;;;;;;5.90;99.90;;;;;;5105166;28;19911;-67
2023/04/09 01:48:36;;;;;;;;;;;5.90;99.90;;;;;;5098264;28;19912;-67
2023/04/09 01:51:02;;;;;;;;;;;5.90;99.90;;;;;;5092505;28;19916;-66
2023/04/09 01:53:29;;;;;;;;;;;5.90;99.90;;;;;;5092088;28;20359;-67
2023/04/09 01:55:55;;;;;;;;;;;5.90;99.90;;;;;;5103185;28;19998;-66
2023/04/09 01:58:21;;;;;;;;;;;5.90;99.90;;;;;;5109073;27;19972;-66
2023/04/09 02:00:48;;;;;;;;;;;5.90;99.90;;;;;;5089514;28;20045;-66
2023/04/09 02:03:20;;;;;;;;;;;5.90;99.90;;;;;;5099943;28;19912;-68
2023/04/09 02:05:51;;;;;;;;;;;5.90;99.90;;;;;;5093709;28;19981;-66
2023/04/09 02:08:19;;;;;;;;;;;5.90;99.90;;;;;;5093676;28;19912;-66
2023/04/09 02:10:52;;;;;;;;;;;5.90;99.90;;;;;;5089492;28;19919;-66
2023/04/09 02:13:18;;;;;;;;;;;6.00;99.90;;;;;;5085456;28;19919;-67
2023/04/09 02:15:44;;;;;;;;;;;5.90;99.90;;;;;;5090843;28;19920;-67
2023/04/09 02:18:20;;;;;;;;;;;6.00;99.90;;;;;;5105800;28;19920;-67
2023/04/09 02:20:46;;;;;;;;;;;6.00;99.90;;;;;;5095995;28;19934;-67
2023/04/09 02:23:11;;;;;;;;;;;6.00;99.90;;;;;;5097660;28;20283;-67
2023/04/09 02:25:37;;;;;;;;;;;6.00;99.90;;;;;;5090647;28;19918;-67
2023/04/09 02:28:02;;;;;;;;;;;6.00;99.90;;;;;;5100459;28;19912;-67
2023/04/09 02:30:28;;;;;;;;;;;6.10;99.90;;;;;;5093424;28;19911;-66
2023/04/09 02:32:54;;;;;;;;;;;6.10;99.90;;;;;;5095683;28;19912;-67
2023/04/09 02:35:19;;;;;;;;;;;6.10;99.90;;;;;;5097530;28;19912;-66
2023/04/09 02:37:45;;;;;;;;;;;6.10;99.90;;;;;;5095950;28;19920;-67
2023/04/09 02:40:11;;;;;;;;;;;6.20;99.90;;;;;;5094036;28;20366;-66
2023/04/09 02:42:36;;;;;;;;;;;6.20;99.90;;;;;;5092563;28;19912;-66
2023/04/09 02:45:02;;;;;;;;;;;6.30;99.90;;;;;;5097609;28;19971;-67
2023/04/09 02:47:29;;;;;;;;;;;6.30;99.90;;;;;;5098577;28;19912;-67
2023/04/09 02:49:54;;;;;;;;;;;6.30;99.90;;;;;;5095999;28;19915;-67
2023/04/09 02:52:23;;;;;;;;;;;6.20;99.90;;;;;;5096994;28;19912;-68
2023/04/09 02:54:48;;;;;;;;;;;6.30;99.90;;;;;;5105638;28;20363;-67
2023/04/09 02:57:14;;;;;;;;;;;6.30;99.90;;;;;;5099308;28;19927;-68
2023/04/09 02:59:40;;;;;;;;;;;6.30;99.90;;;;;;5098211;28;19915;-66
2023/04/09 03:02:05;;;;;;;;;;;6.40;99.90;;;;;;5102475;28;19938;-66
2023/04/09 03:04:31;;;;;;;;;;;6.40;99.90;;;;;;5095094;28;19918;-66
2023/04/09 03:06:56;;;;;;;;;;;6.50;99.90;;;;;;5103797;28;19920;-68
2023/04/09 03:09:22;;;;;;;;;;;6.50;99.90;;;;;;5103791;28;19916;-67
2023/04/09 03:11:48;;;;;;;;;;;6.40;99.90;;;;;;5102410;28;20507;-69
2023/04/09 03:14:13;;;;;;;;;;;6.40;99.90;;;;;;5103089;28;19956;-68
2023/04/09 03:16:39;;;;;;;;;;;6.40;99.90;;;;;;5097458;28;19968;-68
2023/04/09 03:19:06;;;;;;;;;;;6.50;99.90;;;;;;5093149;28;20393;-67
2023/04/09 03:21:32;;;;;;;;;;;6.50;99.90;;;;;;5091622;28;19919;-68
2023/04/09 03:23:58;;;;;;;;;;;6.60;99.90;;;;;;5099646;28;19916;-66
2023/04/09 03:26:23;;;;;;;;;;;6.70;99.90;;;;;;5102285;28;20972;-67
2023/04/09 03:28:49;;;;;;;;;;;6.70;99.90;;;;;;5102227;28;19916;-69
2023/04/09 03:31:14;;;;;;;;;;;6.70;99.90;;;;;;5089385;28;20352;-67
2023/04/09 03:33:40;;;;;;;;;;;6.80;99.90;;;;;;5102411;28;19912;-67
2023/04/09 03:36:06;;;;;;;;;;;6.80;99.90;;;;;;5104348;28;19912;-66
2023/04/09 03:38:32;;;;;;;;;;;6.80;99.90;;;;;;5083199;28;19917;-67
2023/04/09 03:40:57;;;;;;;;;;;6.80;99.90;;;;;;5101970;28;19911;-68
2023/04/09 03:43:23;;;;;;;;;;;6.80;99.90;;;;;;5099350;22;19956;-63
2023/04/09 03:45:48;;;;;;;;;;;6.80;99.90;;;;;;5053720;28;19966;-62
2023/04/09 03:48:14;;;;;;;;;;;6.80;99.90;;;;;;5047123;28;20014;-63
2023/04/09 03:50:40;;;;;;;;;;;6.80;99.90;;;;;;5045473;28;19912;-63
2023/04/09 03:53:06;;;;;;;;;;;6.90;99.90;;;;;;5059574;28;19966;-62
2023/04/09 03:55:32;;;;;;;;;;;6.90;99.90;;;;;;5054114;28;19912;-62
2023/04/09 03:57:57;;;;;;;;;;;6.90;99.90;;;;;;5055589;28;20402;-63
2023/04/09 04:00:23;;;;;;;;;;;6.90;99.90;;;;;;5049350;28;19944;-63
2023/04/09 04:02:49;;;;;;;;;;;7.00;99.90;;;;;;5052653;28;20380;-64
2023/04/09 04:05:14;;;;;;;;;;;7.00;99.90;;;;;;5051207;28;19916;-64
2023/04/09 04:07:42;;;;;;;;;;;7.10;99.90;;;;;;5050169;28;19912;-64
2023/04/09 04:10:08;;;;;;;;;;;7.20;99.90;;;;;;5047621;28;19944;-63
2023/04/09 04:12:34;;;;;;;;;;;7.20;99.90;;;;;;5046778;28;19963;-63
2023/04/09 04:14:59;;;;;;;;;;;7.20;99.90;;;;;;5046840;28;19916;-63
2023/04/09 04:17:25;;;;;;;;;;;7.20;99.90;;;;;;5046376;28;19951;-64
2023/04/09 04:19:51;;;;;;;;;;;7.20;99.90;;;;;;5047696;28;19913;-63
2023/04/09 04:22:17;;;;;;;;;;;7.20;99.90;;;;;;5045517;28;19919;-63
2023/04/09 04:24:42;;;;;;;;;;;7.30;99.90;;;;;;5050067;28;19912;-63
2023/04/09 04:27:08;;;;;;;;;;;7.30;99.90;;;;;;5047881;28;20356;-63
2023/04/09 04:29:33;;;;;;;;;;;7.30;99.90;;;;;;5050472;28;19924;-63
2023/04/09 04:31:59;;;;;;;;;;;7.30;99.90;;;;;;5051276;28;20490;-63
2023/04/09 04:34:24;;;;;;;;;;;7.30;99.90;;;;;;5051584;28;20356;-62
2023/04/09 04:36:50;;;;;;;;;;;7.30;99.90;;;;;;5055009;28;19920;-62
2023/04/09 04:39:16;;;;;;;;;;;7.30;99.90;;;;;;5045925;28;19913;-63
2023/04/09 04:41:41;;;;;;;;;;;7.30;99.90;;;;;;5052360;28;19919;-62
2023/04/09 04:44:07;;;;;;;;;;;7.30;99.90;;;;;;5049418;28;19920;-62
2023/04/09 04:46:32;;;;;;;;;;;7.30;99.90;;;;;;5050733;28;19913;-63
2023/04/09 04:48:58;;;;;;;;;;;7.30;99.90;;;;;;5051656;28;19939;-62
2023/04/09 04:51:23;;;;;;;;;;;7.40;99.90;;;;;;5050427;28;20015;-63
2023/04/09 04:53:49;;;;;;;;;;;7.40;99.90;;;;;;5046039;28;20357;-62
2023/04/09 04:56:15;;;;;;;;;;;7.40;99.90;;;;;;5053229;28;19919;-61
2023/04/09 04:58:40;;;;;;;;;;;7.40;99.90;;;;;;5051272;28;19912;-62
2023/04/09 05:01:06;;;;;;;;;;;7.40;99.90;;;;;;5041484;28;19913;-61
2023/04/09 05:03:31;;;;;;;;;;;7.40;99.90;;;;;;5053660;28;20265;-62
2023/04/09 05:05:57;;;;;;;;;;;7.40;99.90;;;;;;5048814;28;19928;-63
2023/04/09 05:08:23;;;;;;;;;;;7.40;99.90;;;;;;5045136;28;19912;-63
2023/04/09 05:10:48;;;;;;;;;;;7.50;99.90;;;;;;5049008;28;20008;-62
2023/04/09 05:13:14;;;;;;;;;;;7.50;99.90;;;;;;5050755;28;19920;-62
2023/04/09 05:15:40;;;;;;;;;;;7.40;99.90;;;;;;5052102;28;19919;-62
2023/04/09 05:18:06;;;;;;;;;;;7.50;99.90;;;;;;5052874;28;20003;-62
2023/04/09 05:20:32;;;;;;;;;;;7.50;99.90;;;;;;5052559;28;19917;-63
2023/04/09 05:22:57;;;;;;;;;;;7.50;99.90;;;;;;5049620;28;20387;-63
2023/04/09 05:25:23;;;;;;;;;;;7.50;99.90;;;;;;5050744;28;19912;-63
2023/04/09 05:27:49;;;;;;;;;;;7.40;99.90;;;;;;5047847;28;20346;-64
2023/04/09 05:30:15;;;;;;;;;;;7.40;99.90;;;;;;5047657;28;19996;-64
2023/04/09 05:32:40;;;;;;;;;;;7.30;99.90;;;;;;5052901;28;19919;-63
2023/04/09 05:35:06;;;;;;;;;;;7.30;99.90;;;;;;5056210;28;19966;-63
2023/04/09 05:37:32;;;;;;;;;;;7.40;99.90;;;;;;5054955;28;19921;-63
2023/04/09 05:39:57;;;;;;;;;;;7.40;99.90;;;;;;5061525;28;19922;-63
2023/04/09 05:42:23;;;;;;;;;;;7.40;99.90;;;;;;5050904;28;19919;-62
2023/04/09 05:44:49;;;;;;;;;;;7.50;99.90;;;;;;5055244;28;19925;-63
2023/04/09 05:47:14;;;;;;;;;;;7.50;99.90;;;;;;5054088;28;20285;-63
2023/04/09 05:49:40;;;;;;;;;;;7.50;99.90;;;;;;5054138;28;19913;-63
2023/04/09 05:52:05;;;;;;;;;;;7.50;99.90;;;;;;5059273;28;19919;-63
2023/04/09 05:54:31;;;;;;;;;;;7.50;99.90;;;;;;5051429;28;20007;-63
2023/04/09 05:56:56;;;;;;;;;;;7.50;99.90;;;;;;5058541;28;19960;-63
2023/04/09 05:59:22;;;;;;;;;;;7.60;99.90;;;;;;5049233;28;19940;-63
2023/04/09 06:01:48;;;;;;;;;;;7.70;99.90;;;;;;5055147;28;19920;-63
2023/04/09 06:04:13;;;;;;;;;;;7.70;99.90;;;;;;5051749;28;19919;-64
2023/04/09 06:06:39;;;;;;;;;;;7.70;99.90;;;;;;5057349;28;19920;-63
2023/04/09 06:09:05;;;;;;;;;;;7.70;99.90;;;;;;5052043;28;20422;-63
2023/04/09 06:11:31;;;;;;;;;;;7.70;99.90;;;;;;5046945;28;19913;-62
2023/04/09 06:13:56;;;;;;;;;;;7.70;99.90;;;;;;5055580;28;19969;-63
2023/04/09 06:16:22;;;;;;;;;;;7.70;99.90;;;;;;5046334;28;19921;-64
2023/04/09 06:18:49;;;;;;;;;;;7.70;99.90;;;;;;5049411;28;19943;-63
2023/04/09 06:21:15;;;;;;;;;;;7.80;99.90;;;;;;5048856;28;19917;-63
2023/04/09 06:23:41;;;;;;;;;;;7.80;99.90;;;;;;5049835;28;19913;-63
2023/04/09 06:26:07;;;;;;;;;;;7.90;99.90;;;;;;5048021;28;20396;-62
2023/04/09 06:28:32;;;;;;;;;;;7.90;99.90;;;;;;5048313;28;19917;-62
2023/04/09 06:30:58;;;;;;;;;;;8.00;99.90;;;;;;5049360;28;19917;-63
2023/04/09 06:33:24;;;;;;;;;;;8.10;99.90;;;;;;5048193;28;19912;-63
2023/04/09 06:35:50;;;;;;;;;;;8.20;99.90;;;;;;5050515;28;19913;-63
2023/04/09 06:38:16;;;;;;;;;;;8.30;99.90;;;;;;5046262;28;19924;-63
2023/04/09 06:40:42;;;;;;;;;;;8.40;99.90;;;;;;5046619;28;20368;-63
2023/04/09 06:43:08;;;;;;;;;;;8.50;99.90;;;;;;5041957;28;20526;-63
2023/04/09 06:45:34;;;;;;;;;;;8.60;99.90;;;;;;5048641;28;20339;-64
2023/04/09 06:47:59;;;;;;;;;;;8.80;99.90;;;;;;5057586;28;20423;-63
2023/04/09 06:50:25;;;;;;;;;;;8.90;99.90;;;;;;5054443;28;20332;-62
2023/04/09 06:52:51;;;;;;;;;;;9.10;99.90;;;;;;5052998;28;19913;-65
2023/04/09 06:55:16;;;;;;;;;;;9.20;99.90;;;;;;5047884;28;20308;-62
2023/04/09 06:57:42;;;;;;;;;;;9.00;99.90;;;;;;5046612;28;19927;-63
2023/04/09 07:00:08;;;;;;;;;;;8.80;99.90;;;;;;5047899;28;19923;-63
2023/04/09 07:02:34;;;;;;;;;;;8.50;99.90;;;;;;5058509;28;19913;-63
2023/04/09 07:05:00;;;;;;;;;;;8.40;99.90;;;;;;5050629;28;19913;-63
2023/04/09 07:07:25;;;;;;;;;;;8.40;99.90;;;;;;5052911;28;20593;-64
2023/04/09 07:09:52;;;;;;;;;;;8.60;99.90;;;;;;5055106;28;19960;-64
2023/04/09 07:12:30;;;;;;;;;;;8.60;99.90;;;;;;5053732;28;20349;-63
2023/04/09 07:15:05;;;;;;;;;;;8.60;99.90;;;;;;5054194;28;19928;-63
2023/04/09 07:17:31;;;;;;;;;;;8.70;99.90;;;;;;5046994;28;19997;-63
2023/04/09 07:19:56;;;;;;;;;;;8.70;99.90;;;;;;5056092;28;19995;-63
2023/04/09 07:22:23;;;;;;;;;;;8.80;99.90;;;;;;5050366;28;20308;-63
2023/04/09 07:24:52;;;;;;;;;;;9.00;99.90;;;;;;5058114;28;20364;-64
2023/04/09 07:27:22;;;;;;;;;;;9.30;99.90;;;;;;5050307;28;19913;-63
2023/04/09 07:29:47;;;;;;;;;;;9.60;99.90;;;;;;5050729;28;19913;-64
2023/04/09 07:32:14;;;;;;;;;;;9.80;99.90;;;;;;5043858;28;19913;-63
2023/04/09 07:34:40;;;;;;;;;;;10.00;99.90;;;;;;5051756;28;19913;-63
2023/04/09 07:37:06;;;;;;;;;;;10.10;99.90;;;;;;5050441;28;20028;-62
2023/04/09 07:39:31;;;;;;;;;;;10.20;99.90;;;;;;5050795;28;19967;-63
2023/04/09 07:41:58;;;;;;;;;;;10.30;99.90;;;;;;5054582;28;20471;-63
2023/04/09 07:44:24;;;;;;;;;;;10.30;99.90;;;;;;5042604;28;19921;-63
2023/04/09 07:46:50;;;;;;;;;;;10.50;99.90;;;;;;5056190;28;19912;-63
2023/04/09 07:49:16;;;;;;;;;;;10.40;99.90;;;;;;5049188;28;20376;-60
2023/04/09 07:51:41;;;;;;;;;;;10.40;99.90;;;;;;5045202;28;19913;-66
2023/04/09 07:54:07;;;;;;;;;;;10.60;99.90;;;;;;5053601;28;19913;-65
2023/04/09 07:56:33;;;;;;;;;;;10.70;99.90;;;;;;5057809;28;19920;-66
2023/04/09 07:58:58;;;;;;;;;;;10.60;99.90;;;;;;5057911;28;19913;-65
2023/04/09 08:01:25;;;;;;;;;;;10.60;99.90;;;;;;5052304;28;20288;-65
2023/04/09 08:03:50;;;;;;;;;;;10.50;99.90;;;;;;5051860;28;19913;-65
2023/04/09 08:06:16;;;;;;;;;;;10.50;99.90;;;;;;5053755;28;19920;-65
2023/04/09 08:08:41;;;;;;;;;;;10.70;99.90;;;;;;5054114;28;19913;-70
2023/04/09 08:11:07;;;;;;;;;;;10.80;99.90;;;;;;5063157;28;19912;-64
2023/04/09 08:13:33;;;;;;;;;;;10.90;99.90;;;;;;5061183;28;20003;-68
2023/04/09 08:16:02;;;;;;;;;;;10.90;99.90;;;;;;5063944;28;20295;-68
2023/04/09 08:18:31;;;;;;;;;;;11.00;99.90;;;;;;5049481;28;19950;-64
2023/04/09 08:20:57;;;;;;;;;;;11.00;99.90;;;;;;5054158;28;19920;-65
2023/04/09 08:23:23;;;;;;;;;;;11.00;99.90;;;;;;5056146;28;20288;-65
2023/04/09 08:25:49;;;;;;;;;;;11.00;99.90;;;;;;5047641;28;20036;-67
2023/04/09 08:28:14;;;;;;;;;;;10.70;99.90;;;;;;5046166;28;19913;-65
2023/04/09 08:30:43;;;;;;;;;;;10.60;99.90;;;;;;5049780;28;20013;-65
2023/04/09 08:33:09;;;;;;;;;;;10.70;99.90;;;;;;5064867;28;20379;-65
2023/04/09 08:35:35;;;;;;;;;;;10.60;99.90;;;;;;5054358;28;19913;-65
2023/04/09 08:38:01;;;;;;;;;;;10.50;99.90;;;;;;5056549;28;19921;-65
2023/04/09 08:40:26;;;;;;;;;;;10.40;99.90;;;;;;5050276;28;19917;-66
2023/04/09 08:42:55;;;;;;;;;;;10.30;99.90;;;;;;5061095;28;19956;-65
2023/04/09 08:45:21;;;;;;;;;;;10.30;99.90;;;;;;5061070;28;19974;-67
2023/04/09 08:47:48;;;;;;;;;;;10.50;99.90;;;;;;5059294;28;20364;-66
2023/04/09 08:50:14;;;;;;;;;;;10.50;99.90;;;;;;5055191;28;19995;-67
2023/04/09 08:52:40;;;;;;;;;;;10.70;99.90;;;;;;5046167;28;19935;-68
2023/04/09 08:55:06;;;;;;;;;;;11.00;99.90;;;;;;5061384;28;20269;-66
2023/04/09 08:57:38;;;;;;;;;;;11.10;99.90;;;;;;5053381;28;20023;-67
2023/04/09 09:00:04;;;;;;;;;;;11.10;99.90;;;;;;5045420;28;19927;-66
2023/04/09 09:02:30;;;;;;;;;;;11.20;99.90;;;;;;5052214;28;19915;-62
2023/04/09 09:04:59;;;;;;;;;;;11.30;99.90;;;;;;5054759;28;19982;-62
2023/04/09 09:07:28;;;;;;;;;;;11.50;99.90;;;;;;5050230;28;19948;-63
2023/04/09 09:09:58;;;;;;;;;;;11.80;99.90;;;;;;5045574;28;19920;-63
2023/04/09 09:12:29;;;;;;;;;;;12.20;99.90;;;;;;5053463;28;19912;-63
2023/04/09 09:14:55;;;;;;;;;;;12.50;99.90;;;;;;5054347;28;19913;-62
2023/04/09 09:17:20;;;;;;;;;;;12.70;99.90;;;;;;5039143;22;20692;-66
2023/04/09 09:19:46;;;;;;;;;;;12.60;99.90;;;;;;4998059;28;19949;-65
2023/04/09 09:22:12;;;;;;;;;;;12.40;99.90;;;;;;4992906;28;20374;-66
2023/04/09 09:24:51;;;;;;;;;;;12.40;99.90;;;;;;4997390;28;20279;-66
2023/04/09 09:27:39;;;;;;;;;;;12.60;99.90;;;;;;4998021;28;19921;-65
2023/04/09 09:30:05;;;;;;;;;;;12.70;99.90;;;;;;5011934;28;19971;-65
2023/04/09 09:32:34;;;;;;;;;;;13.10;99.90;;;;;;5006737;28;19929;-65
2023/04/09 09:35:03;;;;;;;;;;;13.40;99.90;;;;;;4997123;28;19914;-64
2023/04/09 09:37:30;;;;;;;;;;;13.50;99.90;;;;;;5002181;28;19928;-65
2023/04/09 09:39:56;;;;;;;;;;;13.70;99.90;;;;;;5003915;28;19914;-65
2023/04/09 09:42:22;;;;;;;;;;;13.80;99.90;;;;;;4993907;28;19963;-65
2023/04/09 09:44:48;;;;;;;;;;;13.90;99.90;;;;;;5002982;28;19981;-65
2023/04/09 09:47:16;;;;;;;;;;;13.80;99.90;;;;;;5000341;28;19967;-64
2023/04/09 09:49:42;;;;;;;;;;;13.60;99.90;;;;;;5002709;28;19933;-65
2023/04/09 09:52:08;;;;;;;;;;;13.50;99.90;;;;;;5008696;28;19913;-64
2023/04/09 09:54:38;;;;;;;;;;;13.60;99.90;;;;;;4999385;28;19914;-65
2023/04/09 09:57:06;;;;;;;;;;;13.70;99.90;;;;;;5003347;28;20369;-64
2023/04/09 09:59:34;;;;;;;;;;;13.80;99.90;;;;;;4990536;28;19917;-64
2023/04/09 10:02:03;;;;;;;;;;;13.50;99.90;;;;;;4994128;28;20020;-64
2023/04/09 10:04:32;;;;;;;;;;;13.60;99.90;;;;;;5000683;28;19913;-65
2023/04/09 10:07:00;;;;;;;;;;;13.60;99.90;;;;;;5006056;28;19961;-66
2023/04/09 10:09:26;;;;;;;;;;;13.60;99.90;;;;;;5011150;28;20337;-66
2023/04/09 10:11:53;;;;;;;;;;;13.70;99.90;;;;;;4999929;28;19917;-65
2023/04/09 10:14:19;;;;;;;;;;;13.90;99.90;;;;;;5006679;28;19953;-65
2023/04/09 10:16:45;;;;;;;;;;;14.10;99.90;;;;;;5005590;28;20663;-66
2023/04/09 10:19:14;;;;;;;;;;;14.40;99.90;;;;;;4993361;28;19920;-66
2023/04/09 10:22:00;;;;;;;;;;;14.30;99.90;;;;;;5002082;28;20007;-65
2023/04/09 10:24:26;;;;;;;;;;;14.20;99.90;;;;;;5000441;28;19914;-66
2023/04/09 10:27:07;;;;;;;;;;;14.20;99.90;;;;;;5007129;28;20288;-65
2023/04/09 10:29:33;;;;;;;;;;;14.10;99.90;;;;;;4993398;28;19936;-66
2023/04/09 10:32:05;;;;;;;;;;;14.00;99.90;;;;;;4997154;28;19914;-65
2023/04/09 10:34:36;;;;;;;;;;;13.90;99.90;;;;;;4991790;28;19913;-65
2023/04/09 10:37:02;;;;;;;;;;;13.90;99.90;;;;;;4995415;28;19937;-68
2023/04/09 10:39:31;;;;;;;;;;;14.10;99.90;;;;;;4991516;28;19919;-67
2023/04/09 10:42:03;;;;;;;;;;;14.20;99.90;;;;;;5003899;28;19913;-64
2023/04/09 10:44:31;;;;;;;;;;;14.20;99.90;;;;;;5000616;28;19921;-64
2023/04/09 10:46:57;;;;;;;;;;;13.80;99.90;;;;;;4995901;28;19913;-63
2023/04/09 10:49:27;;;;;;;;;;;13.80;99.90;;;;;;4997214;28;19924;-65
2023/04/09 10:52:05;;;;;;;;;;;13.90;99.90;;;;;;4998413;28;19932;-64
2023/04/09 10:54:34;;;;;;;;;;;13.90;99.90;;;;;;4998043;28;19914;-65
2023/04/09 10:57:06;;;;;;;;;;;13.70;99.90;;;;;;4989181;28;20028;-65
2023/04/09 10:59:42;;;;;;;;;;;13.70;99.90;;;;;;4995134;28;20381;-65
2023/04/09 11:02:27;;;;;;;;;;;13.70;99.90;;;;;;4998862;28;19928;-63
2023/04/09 11:05:03;;;;;;;;;;;13.60;99.90;;;;;;5000465;28;19920;-64
2023/04/09 11:07:29;;;;;;;;;;;13.80;99.90;;;;;;4974846;28;19943;-63
2023/04/09 11:09:54;;;;;;;;;;;13.90;99.90;;;;;;4998552;28;19910;-64
2023/04/09 11:12:20;;;;;;;;;;;13.90;99.90;;;;;;4992622;28;19925;-65
2023/04/09 11:14:46;;;;;;;;;;;14.00;99.90;;;;;;4994892;28;19928;-64
2023/04/09 11:17:11;;;;;;;;;;;14.30;99.90;;;;;;4988800;28;19926;-66
2023/04/09 11:19:37;;;;;;;;;;;14.60;99.90;;;;;;4991669;28;20008;-65
2023/04/09 11:22:05;;;;;;;;;;;14.70;99.90;;;;;;4992031;28;19957;-65
2023/04/09 11:24:40;;;;;;;;;;;14.90;99.90;;;;;;4993724;28;19913;-64
2023/04/09 11:27:07;;;;;;;;;;;15.10;99.90;;;;;;4992255;28;19953;-65
2023/04/09 11:29:33;;;;;;;;;;;15.30;99.90;;;;;;4995538;28;19913;-66
2023/04/09 11:31:59;;;;;;;;;;;15.50;99.90;;;;;;4995965;28;19913;-65
2023/04/09 11:34:28;;;;;;;;;;;15.80;99.90;;;;;;4988228;28;20029;-64
2023/04/09 11:36:53;;;;;;;;;;;15.60;99.90;;;;;;4990873;28;20341;-67
2023/04/09 11:39:19;;;;;;;;;;;15.40;99.90;;;;;;4992044;28;20412;-66
2023/04/09 11:41:45;;;;;;;;;;;15.80;99.90;;;;;;4995144;28;19921;-69
2023/04/09 11:44:11;;;;;;;;;;;16.00;99.90;;;;;;4992572;28;20392;-71
2023/04/09 11:46:40;;;;;;;;;;;16.30;99.90;;;;;;4989311;28;19918;-67
2023/04/09 11:49:05;;;;;;;;;;;16.50;99.90;;;;;;4992765;28;19956;-68
2023/04/09 11:51:31;;;;;;;;;;;16.50;99.90;;;;;;4990925;28;19949;-67
2023/04/09 11:54:06;;;;;;;;;;;16.40;99.90;;;;;;4998575;28;19913;-67
2023/04/09 11:56:32;;;;;;;;;;;16.20;99.90;;;;;;4996557;28;19914;-67
2023/04/09 11:58:57;;;;;;;;;;;16.50;99.90;;;;;;4991767;28;20004;-65
2023/04/09 12:01:23;;;;;;;;;;;16.70;99.90;;;;;;4991833;28;20011;-68
2023/04/09 12:03:52;;;;;;;;;;;16.70;99.90;;;;;;4991960;28;19914;-67
2023/04/09 12:06:19;;;;;;;;;;;16.70;99.90;;;;;;4996001;28;20297;-67
2023/04/09 12:08:44;;;;;;;;;;;16.90;99.90;;;;;;4988793;28;21573;-67
2023/04/09 12:11:11;;;;;;;;;;;16.60;99.90;;;;;;4989557;28;20361;-67
2023/04/09 12:13:41;;;;;;;;;;;16.60;99.90;;;;;;4991932;28;19936;-67
2023/04/09 12:16:08;;;;;;;;;;;16.70;99.90;;;;;;4986921;28;19914;-67
2023/04/09 12:18:37;;;;;;;;;;;16.50;99.90;;;;;;4988817;28;19929;-66
2023/04/09 12:21:03;;;;;;;;;;;16.60;99.90;;;;;;4990848;28;19913;-68
2023/04/09 12:23:32;;;;;;;;;;;16.90;99.90;;;;;;4989415;28;19940;-67
2023/04/09 12:26:00;;;;;;;;;;;17.10;99.90;;;;;;4994221;28;20285;-69
2023/04/09 12:28:25;;;;;;;;;;;17.10;99.90;;;;;;4990451;28;19929;-66
2023/04/09 12:30:51;;;;;;;;;;;17.00;99.90;;;;;;4991120;28;19936;-65
2023/04/09 12:33:17;;;;;;;;;;;17.20;99.90;;;;;;4989853;28;19918;-66
2023/04/09 12:35:42;;;;;;;;;;;17.30;99.90;;;;;;4990506;28;19918;-68
2023/04/09 12:38:08;;;;;;;;;;;17.70;99.90;;;;;;4989693;28;20482;-66
2023/04/09 12:40:34;;;;;;;;;;;17.90;99.90;;;;;;4993655;28;19961;-66
2023/04/09 12:43:00;;;;;;;;;;;18.10;99.90;;;;;;4988646;28;19914;-64
2023/04/09 12:45:26;;;;;;;;;;;18.00;99.90;;;;;;4996548;28;19913;-66
2023/04/09 12:47:52;;;;;;;;;;;17.80;99.90;;;;;;4991108;28;19947;-65
2023/04/09 12:50:17;;;;;;;;;;;18.20;99.90;;;;;;4991844;28;19913;-65
2023/04/09 12:52:43;;;;;;;;;;;18.30;99.90;;;;;;4993820;28;19914;-68
2023/04/09 12:55:10;;;;;;;;;;;18.20;99.90;;;;;;4991203;28;20344;-67
2023/04/09 12:57:36;;;;;;;;;;;18.30;99.90;;;;;;4996293;28;19940;-66
2023/04/09 13:00:03;;;;;;;;;;;18.20;99.90;;;;;;4991353;28;19976;-65
2023/04/09 13:02:29;;;;;;;;;;;18.30;99.90;;;;;;4992212;28;19914;-64
2023/04/09 13:04:54;;;;;;;;;;;18.30;99.90;;;;;;4993172;28;20325;-64
2023/04/09 13:07:21;;;;;;;;;;;17.50;99.90;;;;;;4989053;28;20859;-66
2023/04/09 13:09:50;;;;;;;;;;;17.70;99.90;;;;;;4992326;28;19913;-65
2023/04/09 13:12:16;;;;;;;;;;;18.10;99.90;;;;;;4990282;28;20347;-65
2023/04/09 13:14:43;;;;;;;;;;;18.30;99.90;;;;;;4992989;28;20013;-70
2023/04/09 13:17:08;;;;;;;;;;;18.90;99.90;;;;;;4987572;28;20405;-62
2023/04/09 13:19:35;;;;;;;;;;;19.30;99.90;;;;;;4994546;28;19968;-63
2023/04/09 13:22:00;;;;;;;;;;;19.30;99.90;;;;;;4991472;28;19913;-62
2023/04/09 13:24:26;;;;;;;;;;;19.30;99.90;;;;;;4993080;28;19945;-62
2023/04/09 13:26:52;;;;;;;;;;;19.10;99.90;;;;;;4990982;28;19920;-61
2023/04/09 13:29:18;;;;;;;;;;;19.50;99.90;;;;;;4988946;28;20001;-61
2023/04/09 13:31:44;;;;;;;;;;;19.50;99.90;;;;;;4990253;28;19996;-63
2023/04/09 13:34:09;;;;;;;;;;;19.30;99.90;;;;;;4990668;28;20029;-61
2023/04/09 13:36:35;;;;;;;;;;;19.60;99.90;;;;;;4995559;28;19959;-61
2023/04/09 13:39:03;;;;;;;;;;;20.00;99.90;;;;;;4992165;28;20008;-62
2023/04/09 13:41:37;;;;;;;;;;;19.80;99.90;;;;;;4992804;28;19921;-61
2023/04/09 13:44:06;;;;;;;;;;;19.70;99.90;;;;;;4990354;28;19956;-64
2023/04/09 13:46:32;;;;;;;;;;;19.50;99.90;;;;;;4993257;28;20005;-64
2023/04/09 13:48:58;;;;;;;;;;;19.60;99.90;;;;;;4995705;28;20354;-62
2023/04/09 13:51:24;;;;;;;;;;;19.90;99.90;;;;;;4987316;28;19914;-63
2023/04/09 13:53:51;;;;;;;;;;;20.40;99.90;;;;;;4994372;28;20020;-63
2023/04/09 13:56:16;;;;;;;;;;;20.70;93.80;;;;;;4991499;28;19914;-62
2023/04/09 13:58:42;;;;;;;;;;;20.60;94.10;;;;;;5006039;28;19933;-64
2023/04/09 14:01:12;;;;;;;;;;;21.00;89.50;;;;;;5002817;28;20255;-62
2023/04/09 14:03:38;;;;;;;;;;;20.70;83.70;;;;;;5007156;28;19913;-64
2023/04/09 14:06:05;;;;;;;;;;;20.90;92.80;;;;;;5011352;28;20000;-65
2023/04/09 14:08:34;;;;;;;;;;;21.10;85.20;;;;;;5009835;28;19913;-65
2023/04/09 14:11:00;;;;;;;;;;;21.20;85.70;;;;;;4999919;28;19920;-63
2023/04/09 14:13:26;;;;;;;;;;;21.30;73.50;;;;;;5003198;28;19914;-62
2023/04/09 14:15:51;;;;;;;;;;;21.30;75.00;;;;;;5011544;28;19914;-64
2023/04/09 14:18:17;;;;;;;;;;;21.30;72.50;;;;;;5007869;28;19928;-68
2023/04/09 14:20:43;;;;;;;;;;;21.60;70.90;;;;;;4997411;28;19961;-61
2023/04/09 14:23:08;;;;;;;;;;;21.60;66.90;;;;;;4999530;28;19914;-61